Time;durP1;ratioP1;P1;durP2;ratioP2;P2;SDS_P1;SDS_P2;PMS_P1;PMS_P2;Temp;Humidity;BMP_temperature;BMP_pressure;BME280_temperature;BME280_humidity;BME280_pressure;Samples;Min_cycle;Max_cycle;Signal;HPM_P1;HPM_P2
2022/09/22 00:01:33;;;;;;;8.83;4.73;;;;;;;9.51;82.71;95063.53;5012278;28;20263;-74
2022/09/22 00:04:03;;;;;;;6.53;4.40;;;;;;;9.49;82.48;95052.41;5012256;28;20184;-74
2022/09/22 00:06:31;;;;;;;6.00;4.70;;;;;;;9.57;82.44;95062.72;5012164;28;20534;-74
2022/09/22 00:08:59;;;;;;;8.03;4.77;;;;;;;9.58;82.13;95054.66;5012435;28;20180;-74
2022/09/22 00:11:52;;;;;;;9.43;5.20;;;;;;;9.57;81.87;95060.09;5012235;28;20230;-74
2022/09/22 00:14:22;;;;;;;6.80;5.37;;;;;;;9.60;81.71;95060.50;5009330;28;20200;-74
2022/09/22 00:16:51;;;;;;;5.90;4.60;;;;;;;9.55;81.78;95051.59;5012049;28;20617;-75
2022/09/22 00:19:21;;;;;;;6.60;4.70;;;;;;;9.53;81.65;95051.00;5012118;28;20177;-74
2022/09/22 00:21:47;;;;;;;6.83;4.70;;;;;;;9.52;81.91;95052.81;5012306;28;20570;-74
2022/09/22 00:24:13;;;;;;;6.67;4.07;;;;;;;9.52;81.71;95052.81;5012193;28;20176;-74
2022/09/22 00:26:39;;;;;;;5.53;4.33;;;;;;;9.11;82.23;94995.13;5012169;28;20936;-74
2022/09/22 00:29:08;;;;;;;6.97;5.43;;;;;;;9.38;82.10;95045.91;5012134;28;20266;-74
2022/09/22 00:31:39;;;;;;;9.17;6.10;;;;;;;9.43;82.02;95052.19;5012139;28;20179;-74
2022/09/22 00:34:05;;;;;;;6.87;5.23;;;;;;;9.34;81.96;95039.44;5011927;28;20184;-74
2022/09/22 00:36:30;;;;;;;6.60;5.23;;;;;;;9.49;81.93;95058.47;5011874;28;20198;-74
2022/09/22 00:38:57;;;;;;;6.13;4.90;;;;;;;9.46;81.59;95057.03;5012023;28;20643;-74
2022/09/22 00:41:29;;;;;;;5.63;4.53;;;;;;;9.45;81.50;95058.06;5011812;28;20168;-74
2022/09/22 00:44:25;;;;;;;5.83;4.50;;;;;;;9.37;82.05;95055.59;5011693;28;20253;-74
2022/09/22 00:47:12;;;;;;;5.97;4.60;;;;;;;9.42;82.73;95047.16;5011720;28;20183;-74
2022/09/22 00:49:42;;;;;;;7.53;4.60;;;;;;;9.48;82.65;95054.22;5011506;28;20255;-74
2022/09/22 00:52:10;;;;;;;7.00;4.80;;;;;;;9.55;82.79;95067.38;4993981;28;20631;-74
2022/09/22 00:54:37;;;;;;;7.03;5.37;;;;;;;9.57;82.53;95060.09;5010837;28;20168;-74
2022/09/22 00:57:14;;;;;;;10.17;6.00;;;;;;;9.40;82.30;95044.72;5011565;28;20180;-73
2022/09/22 00:59:43;;;;;;;8.13;4.97;;;;;;;9.42;81.89;95047.16;5011413;28;20172;-74
2022/09/22 01:02:09;;;;;;;6.53;4.70;;;;;;;9.38;82.57;95038.03;5011209;28;20612;-74
2022/09/22 01:04:35;;;;;;;7.10;4.50;;;;;;;9.27;82.46;95018.41;5011130;28;20227;-74
2022/09/22 01:07:01;;;;;;;4.77;4.07;;;;;;;9.21;82.59;95013.13;5011173;28;20176;-74
2022/09/22 01:09:31;;;;;;;6.93;3.50;;;;;;;9.24;82.02;95018.81;5011252;28;20540;-74
2022/09/22 01:11:58;;;;;;;7.10;4.87;;;;;;;9.27;82.35;95025.47;5010861;28;20192;-74
2022/09/22 01:14:38;;;;;;;7.93;5.13;;;;;;;9.33;82.01;95043.09;5011004;28;20176;-74
2022/09/22 01:17:16;;;;;;;7.77;5.50;;;;;;;9.22;82.14;95031.31;5011060;28;20234;-74
2022/09/22 01:19:56;;;;;;;9.30;5.67;;;;;;;9.32;82.26;95038.84;5011128;28;20535;-74
2022/09/22 01:22:40;;;;;;;10.70;5.70;;;;;;;9.29;81.83;95032.16;5011146;28;20206;-74
2022/09/22 01:25:11;;;;;;;9.30;5.97;;;;;;;9.25;82.01;95041.44;5011251;28;20176;-74
2022/09/22 01:27:52;;;;;;;6.97;5.27;;;;;;;9.21;82.03;95040.22;5011149;28;20250;-74
2022/09/22 01:30:26;;;;;;;7.33;5.70;;;;;;;9.20;82.05;95033.34;5010919;28;20172;-74
2022/09/22 01:33:03;;;;;;;7.13;5.10;;;;;;;9.18;82.09;95035.34;5010989;28;20294;-74
2022/09/22 01:35:38;;;;;;;6.83;4.67;;;;;;;9.15;82.25;95038.38;5010935;28;20183;-74
2022/09/22 01:38:50;;;;;;;5.57;4.17;;;;;;;9.00;81.99;95014.06;5011111;28;20927;-74
2022/09/22 01:41:32;;;;;;;5.43;4.20;;;;;;;9.03;82.34;95029.44;5010251;28;20191;-74
2022/09/22 01:44:03;;;;;;;5.47;4.43;;;;;;;8.96;82.45;95028.59;5010845;28;20173;-74
2022/09/22 01:46:34;;;;;;;5.57;4.07;;;;;;;8.93;82.26;95029.00;5010955;28;20255;-74
2022/09/22 01:49:06;;;;;;;6.63;4.40;;;;;;;8.82;82.66;95011.97;5010939;28;20544;-74
2022/09/22 01:51:46;;;;;;;4.57;4.03;;;;;;;8.85;82.61;95031.78;5010818;28;20187;-74
2022/09/22 01:54:24;;;;;;;4.50;3.63;;;;;;;8.58;82.67;94997.56;5010934;28;20191;-74
2022/09/22 01:56:57;;;;;;;6.13;3.93;;;;;;;8.69;83.20;95027.69;5010785;28;20634;-74
2022/09/22 01:59:27;;;;;;;4.83;3.73;;;;;;;8.68;83.28;95032.13;5010969;28;20635;-74
2022/09/22 02:02:10;;;;;;;4.83;4.03;;;;;;;8.53;83.50;95020.94;5010961;28;20172;-74
2022/09/22 02:04:44;;;;;;;4.50;3.67;;;;;;;8.51;83.88;95024.75;5011524;28;20172;-74
2022/09/22 02:07:23;;;;;;;4.43;3.57;;;;;;;8.42;83.92;95024.09;5014753;28;20282;-74
2022/09/22 02:09:49;;;;;;;5.23;3.63;;;;;;;8.24;84.08;94995.72;5014614;28;20669;-74
2022/09/22 02:12:17;;;;;;;5.17;3.40;;;;;;;8.31;83.95;95012.34;5014465;28;20204;-74
2022/09/22 02:14:43;;;;;;;4.93;3.93;;;;;;;8.43;83.97;95033.59;5014606;28;20180;-74
2022/09/22 02:17:09;;;;;;;4.33;3.47;;;;;;;8.37;84.28;95028.31;5014315;28;20484;-74
2022/09/22 02:19:39;;;;;;;3.87;3.40;;;;;;;8.35;84.32;95035.56;5014405;28;20315;-74
2022/09/22 02:22:07;;;;;;;5.70;3.70;;;;;;;8.36;84.33;95030.13;5014430;28;20176;-74
2022/09/22 02:24:36;;;;;;;4.50;3.77;;;;;;;8.33;84.62;95026.06;5014426;28;20176;-74
2022/09/22 02:27:06;;;;;;;3.93;3.53;;;;;;;8.35;84.70;95028.50;5014265;28;20526;-74
2022/09/22 02:29:36;;;;;;;4.90;3.60;;;;;;;8.36;85.32;95029.31;5014455;28;20255;-74
2022/09/22 02:32:07;;;;;;;9.33;4.10;;;;;;;8.36;85.04;95021.44;5014376;28;20678;-74
2022/09/22 02:34:33;;;;;;;4.57;4.00;;;;;;;8.38;85.38;95020.25;5014240;28;20173;-74
2022/09/22 02:37:07;;;;;;;5.63;4.13;;;;;;;8.43;85.54;95020.47;5014161;28;20199;-74
2022/09/22 02:39:51;;;;;;;7.37;4.43;;;;;;;8.46;85.65;95019.28;5013980;28;20675;-74
2022/09/22 02:42:25;;;;;;;6.57;4.60;;;;;;;8.43;85.49;95023.09;5013827;28;20633;-74
2022/09/22 02:45:06;;;;;;;6.73;5.20;;;;;;;8.37;86.58;95025.69;5013947;28;20176;-74
2022/09/22 02:47:39;;;;;;;7.20;5.47;;;;;;;8.14;86.65;95007.56;5013959;28;20183;-74
2022/09/22 02:50:08;;;;;;;8.67;5.23;;;;;;;8.26;86.81;95034.88;5013866;28;20180;-74
2022/09/22 02:52:36;;;;;;;7.33;5.77;;;;;;;8.24;86.98;95029.00;5013619;28;20576;-74
2022/09/22 02:55:01;;;;;;;7.97;5.70;;;;;;;8.28;87.61;95038.13;5013636;28;20185;-74
2022/09/22 02:57:27;;;;;;;7.93;5.97;;;;;;;8.33;87.74;95041.81;5013852;28;20172;-74
2022/09/22 02:59:52;;;;;;;7.70;5.60;;;;;;;8.26;87.45;95009.47;5013503;28;20655;-74
2022/09/22 03:02:17;;;;;;;9.03;6.20;;;;;;;8.43;87.36;95036.22;5013440;28;20168;-74
2022/09/22 03:04:43;;;;;;;8.97;5.60;;;;;;;8.27;88.03;95041.75;5013552;28;20176;-74
2022/09/22 03:07:08;;;;;;;7.23;5.67;;;;;;;8.20;88.17;95027.78;5013414;28;20266;-74
2022/09/22 03:09:34;;;;;;;8.50;6.30;;;;;;;8.23;88.88;95043.13;5013315;28;20168;-74
2022/09/22 03:11:59;;;;;;;7.60;6.27;;;;;;;8.13;89.25;95037.41;5012970;28;20176;-74
2022/09/22 03:14:25;;;;;;;7.23;5.23;;;;;;;8.12;89.74;95035.78;4995371;28;20168;-74
2022/09/22 03:16:50;;;;;;;8.00;6.23;;;;;;;8.10;90.47;95033.34;5009464;28;20976;-74
2022/09/22 03:19:15;;;;;;;8.50;6.30;;;;;;;8.22;90.19;95034.44;5003362;28;20191;-74
2022/09/22 03:21:41;;;;;;;8.53;5.97;;;;;;;8.27;90.06;95020.75;4993251;28;20204;-74
2022/09/22 03:24:06;;;;;;;7.80;6.03;;;;;;;8.48;89.85;95046.13;4993643;28;20864;-74
2022/09/22 03:26:33;;;;;;;9.83;6.43;;;;;;;8.50;89.68;95038.88;4993514;28;20224;-74
2022/09/22 03:28:59;;;;;;;9.33;6.53;;;;;;;8.56;89.41;95044.16;4993392;28;20185;-74
2022/09/22 03:31:24;;;;;;;8.47;6.80;;;;;;;8.57;89.39;95040.53;4993452;28;20191;-74
2022/09/22 03:33:49;;;;;;;6.73;5.57;;;;;;;8.68;88.91;95044.44;4993338;28;20212;-73
2022/09/22 03:36:15;;;;;;;6.47;5.77;;;;;;;8.73;88.76;95036.81;4993262;28;20197;-74
2022/09/22 03:38:40;;;;;;;7.10;5.60;;;;;;;8.80;88.69;95042.88;4993297;28;20679;-74
2022/09/22 03:41:06;;;;;;;5.87;4.77;;;;;;;8.78;88.64;95049.31;4993169;28;20184;-74
2022/09/22 03:43:31;;;;;;;8.63;5.80;;;;;;;8.81;88.82;95041.88;4993412;28;20648;-74
2022/09/22 03:45:58;;;;;;;9.80;7.27;;;;;;;8.74;88.71;95013.97;4993325;28;20616;-74
2022/09/22 03:48:25;;;;;;;9.57;7.10;;;;;;;8.92;88.61;95037.88;4993061;28;20173;-73
2022/09/22 03:50:50;;;;;;;10.33;6.73;;;;;;;9.05;88.12;95037.94;4993029;28;20268;-74
2022/09/22 03:53:16;;;;;;;11.60;8.50;;;;;;;9.05;87.89;95036.13;4993099;28;20280;-74
2022/09/22 03:55:41;;;;;;;10.93;8.50;;;;;;;9.11;88.17;95039.75;4992888;28;20181;-74
2022/09/22 03:58:06;;;;;;;24.03;16.80;;;;;;;9.13;87.84;95036.94;4993042;28;20184;-74
2022/09/22 04:00:32;;;;;;;23.47;17.50;;;;;;;9.14;88.03;95043.81;4993144;28;20293;-74
2022/09/22 04:02:57;;;;;;;16.17;11.57;;;;;;;9.15;87.70;95046.25;4992035;28;20281;-74
2022/09/22 04:05:24;;;;;;;12.00;8.53;;;;;;;9.24;87.86;95047.69;4992970;28;20236;-74
2022/09/22 04:07:49;;;;;;;10.73;8.13;;;;;;;9.39;87.44;95048.34;4992812;28;20242;-74
2022/09/22 04:10:15;;;;;;;8.07;5.90;;;;;;;9.45;87.36;95052.78;4992821;28;20173;-74
2022/09/22 04:12:40;;;;;;;7.80;5.90;;;;;;;9.57;86.91;95053.03;4992814;28;20219;-74
2022/09/22 04:15:07;;;;;;;12.47;6.90;;;;;;;9.62;86.34;95050.59;4992799;28;20644;-74
2022/09/22 04:17:32;;;;;;;11.37;7.37;;;;;;;9.57;86.18;95046.97;4992547;28;20290;-73
2022/09/22 04:19:58;;;;;;;9.53;5.87;;;;;;;9.57;85.81;95053.03;4992719;28;20259;-73
2022/09/22 04:22:24;;;;;;;9.67;6.57;;;;;;;9.54;86.06;95055.22;4992671;28;20191;-74
2022/09/22 04:24:49;;;;;;;9.70;7.50;;;;;;;9.68;85.78;95046.38;4992486;28;20629;-73
2022/09/22 04:27:15;;;;;;;9.37;7.20;;;;;;;9.57;85.36;95026.75;4992437;28;20734;-74
2022/09/22 04:29:40;;;;;;;14.90;9.70;;;;;;;9.71;85.64;95049.41;4991301;28;20691;-74
2022/09/22 04:32:05;;;;;;;11.03;8.33;;;;;;;9.56;85.25;95035.63;4992347;28;20283;-74
2022/09/22 04:34:31;;;;;;;13.17;8.10;;;;;;;9.65;85.66;95054.66;4992347;28;20179;-74
2022/09/22 04:36:56;;;;;;;18.03;9.13;;;;;;;9.60;86.17;95052.63;4992281;28;20183;-74
2022/09/22 04:39:22;;;;;;;11.63;8.03;;;;;;;9.67;85.92;95048.19;4992515;28;20275;-74
2022/09/22 04:41:47;;;;;;;10.00;7.47;;;;;;;9.69;85.88;95047.97;4992334;28;20169;-74
2022/09/22 04:44:12;;;;;;;9.37;7.27;;;;;;;9.73;85.36;95055.28;4992126;28;20173;-74
2022/09/22 04:46:38;;;;;;;9.13;7.23;;;;;;;9.70;85.17;95050.41;4991944;28;20684;-73
2022/09/22 04:49:03;;;;;;;9.03;6.67;;;;;;;9.74;85.29;95056.09;4991926;28;20177;-74
2022/09/22 04:51:29;;;;;;;9.67;6.30;;;;;;;9.76;85.23;95043.56;4991923;28;20177;-73
2022/09/22 04:53:54;;;;;;;12.53;7.77;;;;;;;9.39;85.56;95021.25;4991954;28;20263;-74
2022/09/22 04:56:20;;;;;;;13.40;10.73;;;;;;;9.64;86.07;95055.66;4990605;28;20177;-73
2022/09/22 04:58:46;;;;;;;12.70;9.77;;;;;;;9.71;85.47;95038.09;4991738;28;20260;-74
2022/09/22 05:01:11;;;;;;;14.33;11.63;;;;;;;9.73;85.58;95055.28;4991801;28;20272;-73
2022/09/22 05:03:37;;;;;;;9.17;7.10;;;;;;;9.61;85.44;95045.53;4991665;28;20658;-73
2022/09/22 05:06:06;;;;;;;8.83;6.80;;;;;;;9.60;86.13;95055.25;4991643;28;20604;-74
2022/09/22 05:08:32;;;;;;;11.43;7.40;;;;;;;9.56;86.24;95034.84;4991721;28;20192;-73
2022/09/22 05:10:58;;;;;;;10.60;7.57;;;;;;;9.59;86.45;95058.91;4991701;28;20185;-73
2022/09/22 05:13:24;;;;;;;9.20;7.13;;;;;;;9.53;86.59;95049.16;4991554;28;20224;-74
2022/09/22 05:15:49;;;;;;;9.83;6.80;;;;;;;9.62;86.49;95049.78;4991561;28;20223;-74
2022/09/22 05:18:15;;;;;;;10.27;6.20;;;;;;;9.68;86.70;95052.44;4991236;28;20320;-74
2022/09/22 05:20:42;;;;;;;9.70;5.87;;;;;;;9.76;86.28;95054.88;4991768;28;20199;-73
2022/09/22 05:23:07;;;;;;;11.43;6.20;;;;;;;9.81;86.37;95051.66;4991431;28;20252;-74
2022/09/22 05:25:33;;;;;;;12.60;7.00;;;;;;;9.80;85.67;95018.47;4991544;28;20216;-74
2022/09/22 05:27:59;;;;;;;11.97;7.93;;;;;;;10.22;85.34;95059.38;4991374;28;20666;-73
2022/09/22 05:30:25;;;;;;;14.23;9.63;;;;;;;10.31;84.54;95050.25;4991486;28;20175;-74
2022/09/22 05:32:51;;;;;;;13.00;7.93;;;;;;;10.27;84.17;95046.44;4991402;28;20221;-74
2022/09/22 05:35:22;;;;;;;12.27;9.27;;;;;;;10.45;84.04;95058.97;4991396;28;20177;-74
2022/09/22 05:37:49;;;;;;;11.10;7.93;;;;;;;10.56;83.97;95074.09;4991292;28;20675;-74
2022/09/22 05:40:15;;;;;;;9.90;7.03;;;;;;;10.52;83.00;95067.66;4991116;28;20177;-74
2022/09/22 05:42:50;;;;;;;9.83;6.30;;;;;;;10.39;83.29;95059.75;4981255;28;20176;-73
2022/09/22 05:45:17;;;;;;;10.27;7.57;;;;;;;10.51;83.17;95064.19;5010999;28;20171;-73
2022/09/22 05:47:43;;;;;;;16.60;7.00;;;;;;;10.25;83.03;95039.75;5010979;28;20200;-73
2022/09/22 05:50:10;;;;;;;9.93;6.07;;;;;;;10.37;83.81;95056.53;4993290;28;20231;-73
2022/09/22 05:52:35;;;;;;;8.80;6.43;;;;;;;10.59;83.35;95071.06;4993101;28;20317;-73
2022/09/22 05:55:01;;;;;;;12.83;6.73;;;;;;;10.54;83.07;95069.06;5010700;28;20311;-74
2022/09/22 05:57:26;;;;;;;7.63;5.93;;;;;;;10.50;83.09;95044.16;5010772;28;20176;-74
2022/09/22 05:59:55;;;;;;;8.80;5.83;;;;;;;10.54;82.96;95029.59;5010931;28;20183;-74
2022/09/22 06:02:24;;;;;;;7.80;5.10;;;;;;;10.82;81.30;95047.72;5010656;28;20165;-73
2022/09/22 06:04:51;;;;;;;7.20;4.70;;;;;;;10.92;80.85;95071.00;5010731;28;20172;-74
2022/09/22 06:07:19;;;;;;;6.47;5.07;;;;;;;11.00;80.67;95068.13;5010616;28;20172;-74
2022/09/22 06:09:45;;;;;;;6.27;4.63;;;;;;;11.04;80.41;95071.97;5010596;28;20208;-75
2022/09/22 06:12:11;;;;;;;6.53;4.77;;;;;;;11.08;80.44;95074.97;5010397;28;20192;-74
2022/09/22 06:14:37;;;;;;;6.27;5.07;;;;;;;10.98;80.89;95043.03;4993384;28;20176;-74
2022/09/22 06:17:03;;;;;;;6.53;5.40;;;;;;;11.34;80.11;95073.06;5010324;28;20282;-75
2022/09/22 06:19:29;;;;;;;13.20;6.57;;;;;;;11.34;78.69;95057.25;5010881;28;20192;-75
2022/09/22 06:21:54;;;;;;;8.07;4.90;;;;;;;11.54;78.94;95077.44;5010835;28;20184;-75
2022/09/22 06:24:21;;;;;;;6.57;4.97;;;;;;;11.61;79.09;95083.47;5010587;28;20713;-75
2022/09/22 06:26:46;;;;;;;5.40;4.50;;;;;;;11.62;78.64;95083.25;5010685;28;20172;-75
2022/09/22 06:29:12;;;;;;;5.83;4.60;;;;;;;11.68;77.68;95079.78;5010587;28;20235;-75
2022/09/22 06:31:38;;;;;;;6.23;4.57;;;;;;;11.66;78.68;95076.56;5010619;28;20200;-75
2022/09/22 06:34:04;;;;;;;5.53;4.40;;;;;;;11.65;78.04;95050.41;4993001;28;20615;-75
2022/09/22 06:36:30;;;;;;;6.13;4.83;;;;;;;11.85;77.79;95082.75;5010623;28;20235;-75
2022/09/22 06:38:57;;;;;;;6.03;4.33;;;;;;;11.82;77.21;95087.66;5010247;28;20192;-75
2022/09/22 06:41:26;;;;;;;5.80;4.57;;;;;;;11.88;77.36;95084.16;5010263;28;20670;-75
2022/09/22 06:43:54;;;;;;;4.87;4.10;;;;;;;11.81;76.34;95076.28;5010379;28;20262;-75
2022/09/22 06:46:23;;;;;;;7.87;5.17;;;;;;;11.79;77.00;95090.69;5010282;28;20208;-75
2022/09/22 06:48:50;;;;;;;7.63;4.43;;;;;;;11.86;77.33;95087.00;5010394;28;20176;-76
2022/09/22 06:51:16;;;;;;;7.13;4.97;;;;;;;11.84;78.08;95065.31;5010557;28;20565;-74
2022/09/22 06:53:43;;;;;;;7.80;4.53;;;;;;;11.96;76.99;95068.88;5013882;28;20287;-74
2022/09/22 06:56:08;;;;;;;6.73;4.50;;;;;;;12.27;77.30;95081.25;5013783;28;20706;-73
2022/09/22 06:58:34;;;;;;;5.83;4.40;;;;;;;12.51;76.11;95089.38;5013748;28;20165;-74
2022/09/22 07:01:06;;;;;;;6.07;3.73;;;;;;;12.61;75.24;95081.75;5013610;28;20183;-74
2022/09/22 07:03:32;;;;;;;5.63;4.03;;;;;;;12.73;74.20;95080.81;5013276;28;20180;-74
2022/09/22 07:06:02;;;;;;;10.20;4.60;;;;;;;12.75;74.22;95089.34;5013725;28;20695;-74
2022/09/22 07:08:30;;;;;;;5.60;4.73;;;;;;;12.74;74.36;95086.91;5013786;28;20235;-74
2022/09/22 07:10:57;;;;;;;8.37;5.33;;;;;;;12.73;74.48;95087.94;5020470;28;20179;-74
2022/09/22 07:13:24;;;;;;;5.50;4.07;;;;;;;12.76;73.90;95092.78;5024048;28;20258;-75
2022/09/22 07:15:50;;;;;;;5.93;4.83;;;;;;;12.81;74.21;95088.44;5013580;28;20177;-74
2022/09/22 07:18:15;;;;;;;9.30;4.63;;;;;;;12.41;74.03;95032.56;5013262;28;20940;-74
2022/09/22 07:20:44;;;;;;;5.37;4.20;;;;;;;13.04;75.27;95082.53;5013222;28;20187;-74
2022/09/22 07:23:15;;;;;;;5.37;4.50;;;;;;;13.48;73.00;95080.63;5013446;28;20179;-74
2022/09/22 07:25:40;;;;;;;11.27;4.80;;;;;;;13.86;71.66;95083.75;5013104;28;20176;-74
2022/09/22 07:28:10;;;;;;;7.57;5.30;;;;;;;14.45;70.66;95071.47;4993872;28;20234;-74
2022/09/22 07:30:37;;;;;;;9.03;6.50;;;;;;;15.40;68.39;95079.91;5003663;28;20259;-74
2022/09/22 07:33:02;;;;;;;9.77;4.67;;;;;;;16.15;64.76;95087.75;5005746;28;20212;-74
2022/09/22 07:35:28;;;;;;;4.13;3.73;;;;;;;16.54;61.49;95093.97;5009956;28;20615;-74
2022/09/22 07:38:02;;;;;;;6.88;4.72;;;;;;;16.50;60.45;95079.56;5023084;28;20183;-74
2022/09/22 07:40:27;;;;;;;5.43;3.63;;;;;;;16.50;60.98;95090.19;5012910;28;20230;-74
2022/09/22 07:42:53;;;;;;;4.30;3.58;;;;;;;16.42;60.26;95084.47;5001164;28;20184;-74
2022/09/22 07:45:20;;;;;;;3.92;3.47;;;;;;;16.38;60.46;95088.63;5014528;28;20233;-74
2022/09/22 07:50:29;;;;;;;4.10;3.33;;;;;;;16.50;60.02;95084.06;5014245;28;20179;-74
2022/09/22 07:52:55;;;;;;;3.88;3.25;;;;;;;16.45;59.41;95089.28;5015223;28;20209;-74
2022/09/22 07:55:23;;;;;;;11.15;3.72;;;;;;;16.22;59.14;95085.75;5020459;28;20945;-75
2022/09/22 07:57:56;;;;;;;7.25;4.00;;;;;;;15.81;59.50;95086.88;5012361;28;20211;-74
2022/09/22 08:00:31;;;;;;;6.60;4.20;;;;;;;15.61;62.24;95072.41;5006914;28;20180;-74
2022/09/22 08:02:57;;;;;;;6.60;3.28;;;;;;;16.33;63.12;95085.91;5009036;28;20176;-74
2022/09/22 08:05:24;;;;;;;4.72;3.13;;;;;;;17.03;57.62;95088.88;5003372;28;20213;-74
2022/09/22 08:07:50;;;;;;;5.00;3.22;;;;;;;17.16;55.99;95079.72;5009686;28;20724;-75
2022/09/22 08:10:17;;;;;;;9.93;3.05;;;;;;;17.07;56.75;95078.53;4992316;28;20188;-73
2022/09/22 08:12:43;;;;;;;3.38;3.08;;;;;;;16.63;56.30;95067.00;5021770;28;20199;-73
2022/09/22 08:15:10;;;;;;;6.03;3.08;;;;;;;16.35;57.54;95055.38;5011934;28;20180;-73
2022/09/22 08:17:36;;;;;;;7.70;4.53;;;;;;;16.20;57.35;95079.84;5013576;28;20321;-73
2022/09/22 08:20:03;;;;;;;4.32;3.00;;;;;;;15.89;59.77;95084.88;5013869;28;20253;-73
2022/09/22 08:22:29;;;;;;;3.90;2.97;;;;;;;15.81;59.92;95078.09;5017731;28;20172;-73
2022/09/22 08:24:55;;;;;;;3.50;2.88;;;;;;;15.85;60.15;95077.38;5012284;28;20253;-73
2022/09/22 08:27:21;;;;;;;4.30;3.10;;;;;;;15.76;59.78;95052.25;5016968;28;20657;-73
2022/09/22 08:29:47;;;;;;;4.07;3.13;;;;;;;16.14;58.31;95074.69;5010553;28;20192;-75
2022/09/22 08:32:16;;;;;;;5.70;2.92;;;;;;;16.52;59.02;95058.84;4986178;28;20192;-75
2022/09/22 08:34:41;;;;;;;3.22;2.35;;;;;;;17.05;56.80;95040.75;5012975;28;20262;-76
2022/09/22 08:37:08;;;;;;;2.80;2.20;;;;;;;17.68;54.60;95070.31;5013015;28;20276;-74
2022/09/22 08:39:34;;;;;;;3.17;1.98;;;;;;;17.73;52.62;95066.88;5009460;28;20194;-73
2022/09/22 08:42:09;;;;;;;2.45;2.25;;;;;;;17.61;51.48;95064.34;5001261;28;20185;-76
2022/09/22 08:44:48;;;;;;;5.47;2.03;;;;;;;17.32;53.28;95061.06;4994662;28;20187;-76
2022/09/22 08:51:50;;;;;;;2.25;2.00;;;;;;;17.49;55.46;95044.22;4994327;28;20624;-74
2022/09/22 08:53:34;;;;;;;7.65;2.45;;;;;;;17.86;54.58;95060.38;5008882;28;20708;-75
2022/09/22 08:56:10;;;;;;;2.30;1.98;;;;;;;17.93;51.75;95058.31;5014470;28;21210;-74
2022/09/22 08:58:49;;;;;;;1.95;1.80;;;;;;;18.43;52.60;95053.44;5003872;28;20208;-76
2022/09/22 09:01:28;;;;;;;5.53;3.95;;;;;;;18.88;50.85;95054.84;5004235;28;20179;-78
2022/09/22 09:04:10;;;;;;;9.85;5.07;;;;;;;18.75;48.78;95055.31;5005189;28;20263;-77
2022/09/22 09:07:10;;;;;;;6.72;4.50;;;;;;;18.42;50.17;95048.38;5002144;28;20180;-75
2022/09/22 09:09:35;;;;;;;2.40;2.20;;;;;;;18.30;51.90;95047.72;5007752;28;20226;-75
2022/09/22 09:12:10;;;;;;;1.80;1.70;;;;;;;18.78;50.84;95044.91;5021346;28;20180;-76
2022/09/22 09:14:41;;;;;;;4.47;2.88;;;;;;;18.77;48.57;95045.16;5015731;28;20188;-76
2022/09/22 09:17:16;;;;;;;3.05;2.70;;;;;;;18.91;48.96;95022.31;5018958;28;20745;-75
2022/09/22 09:19:56;;;;;;;2.88;2.33;;;;;;;19.21;48.30;95048.34;5010099;28;20211;-75
2022/09/22 09:22:40;;;;;;;4.75;3.45;;;;;;;18.15;48.20;95021.75;5008460;28;20165;-76
2022/09/22 09:25:27;;;;;;;3.10;1.70;;;;;;;17.81;50.02;95039.03;5012568;28;20184;-74
2022/09/22 09:27:58;;;;;;;1.73;1.60;;;;;;;18.10;51.65;95027.84;5009265;28;20175;-76
2022/09/22 09:30:24;;;;;;;5.30;1.98;;;;;;;18.24;49.48;95030.91;5001064;28;20234;-74
2022/09/22 09:32:55;;;;;;;2.38;2.13;;;;;;;18.12;50.25;95030.25;4996835;28;20628;-76
2022/09/22 09:35:25;;;;;;;4.75;1.95;;;;;;;18.03;49.46;95021.09;5000067;28;20181;-75
2022/09/22 09:37:54;;;;;;;3.65;2.05;;;;;;;17.90;49.61;95016.97;5004762;28;20253;-74
2022/09/22 09:40:20;;;;;;;3.53;1.95;;;;;;;18.04;49.32;95002.22;5002260;28;20198;-74
2022/09/22 09:42:57;;;;;;;1.70;1.60;;;;;;;17.91;47.66;95018.59;4991439;28;20237;-74
2022/09/22 09:45:30;;;;;;;2.63;1.90;;;;;;;17.40;49.42;95019.09;4998294;28;20168;-75
2022/09/22 09:48:45;;;;;;;6.18;1.63;;;;;;;17.59;51.11;95020.38;5003875;28;20184;-76
2022/09/22 09:51:13;;;;;;;1.73;1.50;;;;;;;17.74;50.13;95023.22;4988060;28;20217;-77
2022/09/22 09:53:48;;;;;;;2.20;1.90;;;;;;;17.58;49.88;95002.78;5004289;28;20269;-76
2022/09/22 09:56:23;;;;;;;3.03;1.92;;;;;;;17.48;50.00;95005.34;4996889;28;20283;-78
2022/09/22 10:01:59;;;;;;;2.78;2.50;;;;;;;17.14;51.23;95024.09;4996610;28;20239;-77
2022/09/22 10:04:37;;;;;;;1.90;1.70;;;;;;;16.93;51.09;95017.75;5002548;28;20620;-77
2022/09/22 10:07:19;;;;;;;2.25;1.98;;;;;;;16.69;51.98;95007.56;4988109;28;20191;-76
2022/09/22 10:09:47;;;;;;;2.42;2.05;;;;;;;16.66;51.72;95016.03;5001477;28;20707;-75
2022/09/22 10:12:33;;;;;;;3.83;1.85;;;;;;;16.36;52.62;94979.13;4995837;28;20282;-77
2022/09/22 10:15:00;;;;;;;2.08;1.40;;;;;;;16.63;52.54;95006.66;5004607;28;20658;-77
2022/09/22 10:17:41;;;;;;;1.50;1.40;;;;;;;16.56;49.26;95009.47;4994238;28;20767;-77
2022/09/22 10:20:19;;;;;;;6.93;3.92;;;;;;;16.57;51.32;94997.00;5002596;28;20268;-77
2022/09/22 10:22:44;;;;;;;1.60;1.50;;;;;;;16.85;50.36;95001.41;5009619;28;20184;-76
2022/09/22 10:25:23;;;;;;;1.55;1.45;;;;;;;16.83;52.63;95000.84;5009832;28;20181;-77
2022/09/22 10:28:03;;;;;;;1.60;1.50;;;;;;;17.10;51.76;94988.41;5021778;28;20184;-76
2022/09/22 10:30:36;;;;;;;3.15;1.70;;;;;;;17.44;52.20;94985.59;5014771;28;20274;-76
2022/09/22 10:33:25;;;;;;;3.30;1.92;;;;;;;17.80;50.88;94992.94;5024179;28;20203;-77
2022/09/22 10:36:04;;;;;;;3.00;1.90;;;;;;;18.12;50.36;94995.59;5006053;28;20287;-77
2022/09/22 10:38:33;;;;;;;3.05;1.85;;;;;;;18.31;48.41;94991.50;5010380;28;20289;-76
2022/09/22 10:41:06;;;;;;;3.13;2.20;;;;;;;18.32;47.85;94989.66;5000313;28;20184;-76
2022/09/22 10:43:53;;;;;;;2.38;1.50;;;;;;;18.38;47.42;94992.09;4999754;28;20188;-76
2022/09/22 10:46:48;;;;;;;3.92;2.28;;;;;;;18.42;48.56;94984.38;5005827;28;20184;-77
2022/09/22 10:49:35;;;;;;;5.97;2.20;;;;;;;18.36;48.77;94980.06;5010511;28;20562;-76
2022/09/22 10:52:07;;;;;;;2.30;1.40;;;;;;;18.32;48.77;94978.97;5011741;28;20246;-76
2022/09/22 10:55:00;;;;;;;1.40;1.30;;;;;;;18.26;48.30;94972.00;4994893;28;20196;-76
2022/09/22 10:57:58;;;;;;;1.63;1.50;;;;;;;18.23;47.51;94973.31;4993847;28;20176;-76
2022/09/22 11:00:26;;;;;;;2.00;1.83;;;;;;;18.31;48.17;94978.19;5004916;28;20191;-76
2022/09/22 11:03:01;;;;;;;1.50;1.40;;;;;;;18.37;46.57;94973.66;5003129;28;20178;-76
2022/09/22 11:14:44;;;;;;;1.10;1.10;;;;;;;18.69;44.68;94963.75;5003641;28;20667;-76
2022/09/22 11:17:28;;;;;;;2.42;1.92;;;;;;;18.78;44.10;94948.88;5000264;28;20762;-76
2022/09/22 11:20:06;;;;;;;1.67;1.30;;;;;;;18.99;43.48;94960.47;5001481;28;20271;-76
2022/09/22 11:22:55;;;;;;;1.83;0.98;;;;;;;18.95;42.03;94953.22;4998607;28;20271;-76
2022/09/22 11:26:00;;;;;;;1.30;1.20;;;;;;;19.02;44.51;94946.63;4999864;28;20193;-77
2022/09/22 11:28:38;;;;;;;1.25;1.02;;;;;;;19.13;44.21;94950.91;4996108;28;20172;-77
2022/09/22 11:31:04;;;;;;;2.35;1.13;;;;;;;19.09;43.98;94949.84;5013063;28;20180;-78
2022/09/22 11:33:47;;;;;;;2.47;1.63;;;;;;;18.85;44.58;94960.13;5011747;28;20207;-78
2022/09/22 11:36:19;;;;;;;3.80;1.25;;;;;;;18.59;46.03;94957.59;4997458;28;20188;-77
2022/09/22 11:38:57;;;;;;;1.77;1.27;;;;;;;18.41;48.01;94962.25;5006389;28;20199;-77
2022/09/22 11:41:53;;;;;;;3.63;1.40;;;;;;;18.09;48.53;94964.94;5000022;28;20185;-76
2022/09/22 11:44:24;;;;;;;2.03;1.83;;;;;;;17.82;49.71;94964.16;4991004;28;20189;-75
2022/09/22 11:46:54;;;;;;;1.85;1.30;;;;;;;17.64;50.28;94952.03;5000331;28;20180;-75
2022/09/22 11:49:32;;;;;;;3.05;1.38;;;;;;;17.44;51.49;94951.81;4999100;28;20203;-75
2022/09/22 11:52:19;;;;;;;1.73;1.60;;;;;;;17.33;52.82;94953.56;5000444;28;20270;-75
2022/09/22 11:55:11;;;;;;;2.75;1.48;;;;;;;17.26;52.19;94944.16;5002633;28;20565;-75
2022/09/22 11:57:40;;;;;;;1.35;1.25;;;;;;;17.10;52.21;94945.06;5001068;28;20187;-75
2022/09/22 12:00:17;;;;;;;1.35;1.20;;;;;;;17.02;53.68;94940.19;5006170;28;20180;-75
2022/09/22 12:02:58;;;;;;;2.72;1.50;;;;;;;16.99;52.81;94952.09;5012873;28;20530;-75
2022/09/22 12:05:42;;;;;;;1.85;1.42;;;;;;;17.00;52.16;94948.41;5012424;28;20200;-75
2022/09/22 12:08:15;;;;;;;2.17;1.40;;;;;;;17.07;50.21;94942.88;5011784;28;20180;-75
2022/09/22 12:10:43;;;;;;;1.33;1.23;;;;;;;17.25;50.78;94946.03;5012010;28;20184;-75
2022/09/22 12:13:16;;;;;;;1.17;1.10;;;;;;;17.27;50.46;94937.78;5011903;28;20197;-75